createdAt,value
2022-09-28T00:02:01.271Z,1.63
2022-09-28T00:04:28.624Z,1.98
2022-09-28T00:06:57.285Z,1.95
2022-09-28T00:09:24.585Z,1.67
2022-09-28T00:11:52.646Z,1.80
2022-09-28T00:14:20.435Z,1.65
2022-09-28T00:16:48.860Z,2.08
2022-09-28T00:19:16.692Z,1.95
2022-09-28T00:21:44.216Z,1.85
2022-09-28T00:24:18.876Z,1.45
2022-09-28T00:26:48.687Z,1.63
2022-09-28T00:29:22.169Z,2.13
2022-09-28T00:31:52.486Z,1.70
2022-09-28T00:34:19.841Z,1.63
2022-09-28T00:36:48.279Z,1.67
2022-09-28T00:39:17.243Z,1.80
2022-09-28T00:41:45.716Z,1.80
2022-09-28T00:44:38.804Z,2.00
2022-09-28T00:47:33.112Z,2.08
2022-09-28T00:50:03.435Z,1.70
2022-09-28T00:52:36.646Z,2.30
2022-09-28T00:55:09.003Z,1.60
2022-09-28T00:57:43.981Z,1.48
2022-09-28T01:00:12.934Z,1.70
2022-09-28T01:02:40.484Z,1.45
2022-09-28T01:05:10.437Z,1.55
2022-09-28T01:07:38.363Z,1.38
2022-09-28T01:10:08.572Z,1.52
2022-09-28T01:12:36.113Z,1.85
2022-09-28T01:15:05.682Z,1.80
2022-09-28T01:17:45.251Z,1.50
2022-09-28T01:20:27.713Z,1.48
2022-09-28T01:23:34.310Z,1.67
2022-09-28T01:26:25.228Z,1.63
2022-09-28T01:28:57.030Z,1.30
2022-09-28T01:31:29.378Z,1.00
2022-09-28T01:36:30.831Z,1.00
2022-09-28T01:39:02.144Z,1.15
2022-09-28T01:41:33.566Z,1.10
2022-09-28T01:44:03.399Z,1.20
2022-09-28T01:46:37.295Z,1.05
2022-09-28T01:49:11.393Z,0.80
2022-09-28T01:51:43.392Z,1.13
2022-09-28T01:54:13.796Z,1.15
2022-09-28T01:56:50.631Z,0.80
2022-09-28T01:59:22.670Z,1.10
2022-09-28T02:01:54.674Z,1.10
2022-09-28T02:04:28.019Z,1.08
2022-09-28T02:07:00.062Z,1.45
2022-09-28T02:09:33.948Z,1.13
2022-09-28T02:12:11.763Z,1.20
2022-09-28T02:14:40.907Z,0.80
2022-09-28T02:17:10.154Z,1.00
2022-09-28T02:19:38.402Z,1.13
2022-09-28T02:22:23.393Z,1.30
2022-09-28T02:24:56.829Z,1.20
2022-09-28T02:27:34.509Z,1.10
2022-09-28T02:30:02.652Z,1.25
2022-09-28T02:32:34.315Z,1.42
2022-09-28T02:35:02.044Z,0.98
2022-09-28T02:37:30.930Z,0.80
2022-09-28T02:39:58.857Z,0.85
2022-09-28T02:42:34.974Z,1.30
2022-09-28T02:45:14.844Z,0.85
2022-09-28T02:47:56.685Z,0.95
2022-09-28T02:50:34.511Z,0.93
2022-09-28T02:53:21.451Z,1.20
2022-09-28T02:56:03.688Z,1.10
2022-09-28T02:58:40.615Z,1.00
2022-09-28T03:01:19.750Z,1.00
2022-09-28T03:03:57.407Z,0.70
2022-09-28T03:06:32.340Z,1.00
2022-09-28T03:09:05.963Z,1.10
2022-09-28T03:11:40.831Z,1.05
2022-09-28T03:14:11.339Z,0.90
2022-09-28T03:16:46.893Z,1.00
2022-09-28T03:19:16.465Z,0.80
2022-09-28T03:21:43.759Z,1.10
2022-09-28T03:24:11.290Z,1.50
2022-09-28T03:26:38.893Z,1.85
2022-09-28T03:29:06.702Z,1.13
2022-09-28T03:31:35.988Z,1.05
2022-09-28T03:34:03.489Z,1.50
2022-09-28T03:36:31.447Z,1.27
2022-09-28T03:38:59.692Z,1.23
2022-09-28T03:41:28.023Z,1.80
2022-09-28T03:43:55.622Z,1.38
2022-09-28T03:46:25.073Z,1.08
2022-09-28T03:48:59.371Z,1.02
2022-09-28T03:51:27.104Z,0.88
2022-09-28T03:53:54.295Z,0.93
2022-09-28T03:56:21.627Z,1.25
2022-09-28T03:58:49.021Z,1.13
2022-09-28T04:01:17.519Z,1.25
2022-09-28T04:03:46.912Z,1.88
2022-09-28T04:06:15.741Z,1.40
2022-09-28T04:08:43.601Z,1.55
2022-09-28T04:11:11.521Z,1.30
2022-09-28T04:13:38.965Z,0.77
2022-09-28T04:16:11.766Z,0.98
2022-09-28T04:18:42.623Z,1.05
2022-09-28T04:21:37.661Z,1.30
2022-09-28T04:24:10.709Z,1.73
2022-09-28T04:26:38.376Z,1.13
2022-09-28T04:29:18.322Z,1.38
2022-09-28T04:31:55.392Z,1.10
2022-09-28T04:34:37.089Z,1.15
2022-09-28T04:37:07.531Z,1.02
2022-09-28T04:39:35.041Z,1.25
2022-09-28T04:42:02.379Z,1.30
2022-09-28T04:44:29.696Z,1.20
2022-09-28T04:47:04.996Z,0.98
2022-09-28T04:49:35.518Z,1.00
2022-09-28T04:52:19.615Z,1.63
2022-09-28T04:54:49.442Z,1.17
2022-09-28T04:57:17.003Z,1.20
2022-09-28T04:59:44.255Z,1.17
2022-09-28T05:02:14.013Z,0.60
2022-09-28T05:04:59.898Z,1.15
2022-09-28T05:07:29.002Z,1.17
2022-09-28T05:09:57.742Z,1.20
2022-09-28T05:12:25.147Z,1.02
2022-09-28T05:14:52.601Z,1.13
2022-09-28T05:17:19.798Z,0.98
2022-09-28T05:20:07.121Z,1.10
2022-09-28T05:22:35.716Z,1.90
2022-09-28T05:25:05.220Z,1.50
2022-09-28T05:27:41.988Z,1.20
2022-09-28T05:30:24.298Z,0.98
2022-09-28T05:33:31.499Z,1.30
2022-09-28T05:36:11.164Z,1.33
2022-09-28T05:38:40.294Z,1.35
2022-09-28T05:41:07.861Z,1.25
2022-09-28T05:43:35.284Z,1.33
2022-09-28T05:46:05.161Z,1.30
2022-09-28T05:48:34.138Z,1.55
2022-09-28T05:51:01.918Z,1.00
2022-09-28T05:53:29.350Z,1.60
2022-09-28T05:55:59.864Z,2.45
2022-09-28T05:58:28.378Z,1.35
2022-09-28T06:00:58.524Z,1.83
2022-09-28T06:03:25.974Z,2.70
2022-09-28T06:05:54.258Z,1.92
2022-09-28T06:08:21.756Z,1.60
2022-09-28T06:11:01.531Z,1.58
2022-09-28T06:13:29.178Z,1.55
2022-09-28T06:15:56.616Z,1.73
2022-09-28T06:18:24.362Z,1.58
2022-09-28T06:21:19.782Z,1.60
2022-09-28T06:23:49.443Z,1.50
2022-09-28T06:26:19.681Z,1.67
2022-09-28T06:28:47.183Z,1.55
2022-09-28T06:31:15.916Z,1.52
2022-09-28T06:33:48.642Z,1.58
2022-09-28T06:36:16.049Z,1.50
2022-09-28T06:38:43.367Z,1.75
2022-09-28T06:41:11.875Z,1.98
2022-09-28T06:43:43.482Z,1.70
2022-09-28T06:46:14.384Z,1.95
2022-09-28T06:48:50.988Z,1.65
2022-09-28T06:51:38.176Z,1.85
2022-09-28T06:54:18.868Z,1.48
2022-09-28T06:56:54.510Z,2.20
2022-09-28T06:59:23.464Z,1.90
2022-09-28T07:01:51.804Z,2.05
2022-09-28T07:04:23.000Z,1.77
2022-09-28T07:07:22.805Z,1.60
2022-09-28T07:11:29.268Z,2.83
2022-09-28T08:08:03.249Z,2.72
2022-09-28T08:10:31.619Z,2.20
2022-09-28T08:13:40.103Z,2.35
2022-09-28T08:16:25.785Z,2.17
2022-09-28T08:19:25.413Z,1.75
2022-09-28T08:21:53.297Z,1.70
2022-09-28T08:24:24.098Z,1.90
2022-09-28T08:26:51.542Z,1.90
2022-09-28T08:29:19.003Z,2.20
2022-09-28T08:31:52.056Z,1.70
2022-09-28T08:34:35.132Z,2.42
2022-09-28T08:37:25.319Z,1.83
2022-09-28T08:40:18.683Z,2.40
2022-09-28T08:43:20.461Z,2.33
2022-09-28T08:46:13.415Z,2.25
2022-09-28T08:49:32.210Z,2.10
2022-09-28T08:52:01.340Z,2.47
2022-09-28T08:54:41.755Z,2.20
2022-09-28T08:57:21.068Z,2.40
2022-09-28T08:59:51.760Z,2.88
2022-09-28T09:02:33.832Z,2.20
2022-09-28T09:05:20.057Z,2.45
2022-09-28T09:08:25.557Z,1.95
2022-09-28T09:11:01.651Z,2.65
2022-09-28T09:14:23.295Z,2.00
2022-09-28T09:17:02.131Z,2.47
2022-09-28T09:20:11.509Z,2.20
2022-09-28T09:23:12.241Z,2.05
2022-09-28T09:25:42.565Z,2.33
2022-09-28T09:28:43.878Z,2.78
2022-09-28T09:31:27.344Z,2.35
2022-09-28T09:34:16.394Z,1.67
2022-09-28T09:37:07.715Z,2.08
2022-09-28T09:40:28.798Z,3.15
2022-09-28T09:43:17.516Z,2.22
2022-09-28T09:46:04.276Z,2.58
2022-09-28T09:48:44.670Z,2.10
2022-09-28T09:51:23.301Z,2.35
2022-09-28T09:53:55.604Z,2.72
2022-09-28T09:56:34.753Z,3.00
2022-09-28T09:59:14.137Z,2.28
2022-09-28T10:02:03.077Z,3.13
2022-09-28T10:04:55.089Z,2.35
2022-09-28T10:07:43.126Z,2.88
2022-09-28T10:10:17.415Z,2.30
2022-09-28T10:12:49.821Z,2.47
2022-09-28T10:15:22.337Z,2.40
2022-09-28T10:18:09.152Z,3.20
2022-09-28T10:20:56.372Z,3.78
2022-09-28T10:24:02.939Z,2.65
2022-09-28T10:26:36.011Z,2.80
2022-09-28T10:29:11.782Z,2.95
2022-09-28T10:31:42.027Z,2.85
2022-09-28T10:34:32.486Z,2.25
2022-09-28T10:37:10.049Z,2.72
2022-09-28T10:40:20.083Z,3.42
2022-09-28T10:42:47.729Z,2.05
2022-09-28T10:45:21.010Z,2.85
2022-09-28T10:47:49.359Z,3.00
2022-09-28T10:50:22.036Z,2.78
2022-09-28T10:52:52.304Z,3.90
2022-09-28T10:56:00.673Z,3.10
2022-09-28T10:58:32.067Z,3.40
2022-09-28T11:01:05.998Z,3.40
2022-09-28T11:03:33.386Z,3.53
2022-09-28T11:06:07.774Z,3.00
2022-09-28T11:11:11.691Z,2.95
2022-09-28T11:13:45.216Z,3.20
2022-09-28T11:16:21.877Z,3.03
2022-09-28T11:18:51.989Z,2.75
2022-09-28T11:21:24.943Z,3.25
2022-09-28T11:24:06.615Z,2.72
2022-09-28T11:26:41.708Z,2.40
2022-09-28T11:29:26.953Z,2.80
2022-09-28T11:32:15.881Z,2.28
2022-09-28T11:35:03.183Z,1.92
2022-09-28T11:37:53.612Z,2.40
2022-09-28T11:40:51.720Z,2.70
2022-09-28T11:43:37.688Z,3.10
2022-09-28T11:46:14.287Z,2.53
2022-09-28T11:48:46.280Z,2.05
2022-09-28T11:51:20.439Z,2.20
2022-09-28T11:53:53.677Z,3.03
2022-09-28T11:56:33.936Z,2.45
2022-09-28T11:59:11.150Z,2.00
2022-09-28T12:01:48.186Z,1.85
2022-09-28T12:04:40.047Z,2.28
2022-09-28T12:07:16.753Z,2.10
2022-09-28T12:09:50.676Z,1.88
2022-09-28T12:12:25.658Z,2.67
2022-09-28T12:15:01.651Z,2.00
2022-09-28T12:17:35.741Z,2.28
2022-09-28T12:20:12.830Z,2.22
2022-09-28T12:22:46.093Z,1.58
2022-09-28T12:25:17.353Z,2.22
2022-09-28T12:27:51.153Z,1.63
2022-09-28T12:30:21.475Z,2.75
2022-09-28T12:32:52.576Z,2.25
2022-09-28T12:35:36.312Z,1.73
2022-09-28T12:38:24.610Z,1.55
2022-09-28T12:40:57.737Z,2.08
2022-09-28T12:43:40.710Z,1.70
2022-09-28T12:46:28.825Z,1.48
2022-09-28T12:52:07.615Z,1.52
2022-09-28T12:54:58.066Z,1.42
2022-09-28T12:57:40.336Z,1.65
2022-09-28T13:00:12.413Z,1.40
2022-09-28T13:03:01.482Z,1.80
2022-09-28T13:06:00.503Z,1.08
2022-09-28T13:08:37.399Z,1.50
2022-09-28T13:11:16.316Z,1.58
2022-09-28T13:13:53.132Z,1.40
2022-09-28T13:16:28.689Z,1.05
2022-09-28T13:19:07.748Z,1.45
2022-09-28T13:21:41.208Z,1.58
2022-09-28T13:24:31.693Z,1.33
2022-09-28T13:27:10.352Z,1.73
2022-09-28T13:32:13.149Z,1.13
2022-09-28T13:34:42.855Z,1.23
2022-09-28T13:37:20.935Z,1.42
2022-09-28T13:39:52.347Z,1.95
2022-09-28T13:42:47.479Z,1.40
2022-09-28T13:45:42.518Z,1.50
2022-09-28T13:48:20.518Z,1.58
2022-09-28T13:51:33.970Z,1.67
2022-09-28T13:54:18.375Z,1.75
2022-09-28T13:56:55.811Z,1.55
2022-09-28T13:59:28.769Z,1.60
2022-09-28T14:02:06.772Z,1.40
2022-09-28T14:04:56.847Z,1.30
2022-09-28T14:07:46.891Z,1.27
2022-09-28T14:10:21.046Z,1.50
2022-09-28T14:12:49.834Z,1.23
2022-09-28T14:15:40.017Z,1.30
2022-09-28T14:18:19.271Z,1.40
2022-09-28T14:20:57.374Z,1.23
2022-09-28T14:23:46.880Z,1.40
2022-09-28T14:27:01.449Z,1.65
2022-09-28T14:29:30.067Z,1.10
2022-09-28T14:31:58.850Z,1.65
2022-09-28T14:34:38.306Z,1.90
2022-09-28T14:37:39.370Z,1.25
2022-09-28T14:40:36.293Z,1.30
2022-09-28T14:43:26.831Z,1.85
2022-09-28T14:46:27.119Z,1.48
2022-09-28T14:48:55.786Z,1.48
2022-09-28T14:52:05.313Z,1.48
2022-09-28T14:54:45.405Z,1.40
2022-09-28T14:57:25.555Z,1.88
2022-09-28T14:59:54.079Z,2.00
2022-09-28T15:02:25.007Z,1.50
2022-09-28T15:04:55.889Z,1.67
2022-09-28T15:07:25.298Z,1.38
2022-09-28T15:09:54.219Z,1.60
2022-09-28T15:12:27.093Z,1.48
2022-09-28T15:14:57.721Z,2.17
2022-09-28T15:17:27.616Z,1.63
2022-09-28T15:20:17.330Z,1.38
2022-09-28T15:22:46.760Z,1.38
2022-09-28T15:25:16.665Z,1.33
2022-09-28T15:27:47.391Z,1.30
2022-09-28T15:30:25.403Z,1.40
2022-09-28T15:32:54.810Z,0.60
2022-09-28T15:35:25.045Z,1.25
2022-09-28T15:37:54.419Z,1.63
2022-09-28T15:40:29.583Z,1.48
2022-09-28T15:42:59.528Z,1.38
2022-09-28T15:45:32.116Z,1.25
2022-09-28T15:50:58.422Z,1.35
2022-09-28T15:53:26.695Z,1.23
2022-09-28T15:56:03.642Z,1.15
2022-09-28T15:58:32.349Z,2.03
2022-09-28T16:01:25.854Z,1.38
2022-09-28T16:03:53.148Z,1.30
2022-09-28T16:06:20.773Z,1.27
2022-09-28T16:08:50.908Z,1.52
2022-09-28T16:11:21.382Z,1.60
2022-09-28T16:14:06.079Z,1.58
2022-09-28T16:16:35.580Z,1.85
2022-09-28T16:19:03.800Z,1.90
2022-09-28T16:21:43.609Z,2.25
2022-09-28T16:24:20.606Z,1.92
2022-09-28T16:26:49.472Z,1.80
2022-09-28T16:29:27.819Z,2.28
2022-09-28T16:31:55.745Z,1.88
2022-09-28T16:34:26.531Z,1.88
2022-09-28T16:36:54.327Z,1.48
2022-09-28T16:39:22.005Z,2.00
2022-09-28T16:41:52.910Z,2.10
2022-09-28T16:44:26.041Z,2.35
2022-09-28T16:46:55.977Z,1.95
2022-09-28T16:49:25.632Z,2.40
2022-09-28T16:51:52.994Z,2.17
2022-09-28T16:54:41.109Z,1.83
2022-09-28T16:57:09.827Z,2.53
2022-09-28T16:59:38.769Z,2.03
2022-09-28T17:05:10.263Z,2.25
2022-09-28T17:07:37.531Z,1.85
2022-09-28T17:10:15.568Z,2.05
2022-09-28T17:12:42.770Z,1.88
2022-09-28T17:15:12.088Z,2.65
2022-09-28T17:17:41.250Z,2.22
2022-09-28T17:20:20.520Z,2.47
2022-09-28T17:22:47.801Z,2.60
2022-09-28T17:25:15.443Z,1.83
2022-09-28T17:27:45.517Z,1.75
2022-09-28T17:30:15.629Z,2.50
2022-09-28T17:32:45.850Z,2.20
2022-09-28T17:35:24.141Z,1.98
2022-09-28T17:37:52.103Z,2.10
2022-09-28T17:40:21.404Z,1.95
2022-09-28T17:42:49.068Z,2.40
2022-09-28T17:45:18.397Z,2.03
2022-09-28T17:47:45.728Z,2.35
2022-09-28T17:50:21.271Z,2.10
2022-09-28T17:52:52.225Z,2.08
2022-09-28T17:55:21.074Z,2.22
2022-09-28T17:57:48.626Z,2.90
2022-09-28T18:00:17.901Z,2.35
2022-09-28T18:02:45.658Z,2.70
2022-09-28T18:05:16.864Z,2.47
2022-09-28T18:07:47.549Z,2.28
2022-09-28T18:10:16.674Z,2.65
2022-09-28T18:12:43.815Z,2.67
2022-09-28T18:15:12.104Z,2.28
2022-09-28T18:17:40.781Z,2.78
2022-09-28T18:20:10.287Z,2.75
2022-09-28T18:22:37.569Z,2.15
2022-09-28T18:25:06.068Z,3.05
2022-09-28T18:27:35.078Z,2.38
2022-09-28T18:30:02.615Z,1.90
2022-09-28T18:32:30.235Z,1.98
2022-09-28T18:34:58.804Z,2.40
2022-09-28T18:37:25.966Z,2.42
2022-09-28T18:39:53.584Z,1.75
2022-09-28T18:42:20.890Z,2.25
2022-09-28T18:44:48.105Z,2.30
2022-09-28T18:47:15.292Z,2.17
2022-09-28T18:49:46.464Z,2.15
2022-09-28T18:52:15.365Z,2.00
2022-09-28T18:54:42.703Z,2.40
2022-09-28T18:57:10.007Z,2.15
2022-09-28T18:59:37.538Z,2.72
2022-09-28T19:02:05.016Z,2.10
2022-09-28T19:04:32.239Z,2.30
2022-09-28T19:06:59.777Z,2.70
2022-09-28T19:09:28.469Z,1.92
2022-09-28T19:11:55.837Z,2.35
2022-09-28T19:14:23.129Z,2.47
2022-09-28T19:16:50.400Z,2.20
2022-09-28T19:19:19.587Z,2.38
2022-09-28T19:21:47.925Z,2.60
2022-09-28T19:24:16.980Z,2.30
2022-09-28T19:26:46.671Z,2.33
2022-09-28T19:29:14.671Z,2.03
2022-09-28T19:31:43.447Z,2.00
2022-09-28T19:34:13.431Z,2.42
2022-09-28T19:36:41.980Z,2.20
2022-09-28T19:39:13.542Z,1.88
2022-09-28T19:41:43.338Z,2.15
2022-09-28T19:44:15.822Z,2.42
2022-09-28T19:46:43.589Z,2.15
2022-09-28T19:49:19.440Z,2.08
2022-09-28T19:54:38.229Z,2.35
2022-09-28T19:57:08.050Z,2.75
2022-09-28T19:59:37.708Z,2.35
2022-09-28T20:02:06.032Z,2.60
2022-09-28T20:04:33.420Z,1.80
2022-09-28T20:07:01.187Z,2.45
2022-09-28T20:09:28.382Z,2.25
2022-09-28T20:11:55.760Z,2.53
2022-09-28T20:14:24.607Z,2.10
2022-09-28T20:16:56.986Z,2.38
2022-09-28T20:19:24.239Z,2.20
2022-09-28T20:21:51.586Z,2.35
2022-09-28T20:24:18.843Z,2.67
2022-09-28T20:26:46.379Z,2.80
2022-09-28T20:29:13.757Z,2.28
2022-09-28T20:31:41.002Z,2.88
2022-09-28T20:34:10.860Z,2.83
2022-09-28T20:36:38.305Z,2.67
2022-09-28T20:39:05.481Z,2.42
2022-09-28T20:41:36.853Z,2.50
2022-09-28T20:44:06.334Z,1.95
2022-09-28T20:46:34.808Z,2.63
2022-09-28T20:49:02.589Z,2.80
2022-09-28T20:51:31.878Z,2.55
2022-09-28T20:53:59.877Z,3.15
2022-09-28T20:56:28.752Z,2.92
2022-09-28T20:58:57.036Z,2.58
2022-09-28T21:01:25.659Z,2.33
2022-09-28T21:03:55.114Z,1.98
2022-09-28T21:06:26.188Z,2.70
2022-09-28T21:08:54.805Z,2.63
2022-09-28T21:11:23.844Z,2.35
2022-09-28T21:13:53.387Z,2.47
2022-09-28T21:16:20.834Z,2.10
2022-09-28T21:18:48.519Z,2.28
2022-09-28T21:21:17.333Z,2.63
2022-09-28T21:23:45.157Z,2.60
2022-09-28T21:26:16.155Z,2.35
2022-09-28T21:28:44.886Z,2.97
2022-09-28T21:31:12.979Z,2.20
2022-09-28T21:33:40.297Z,2.45
2022-09-28T21:36:08.697Z,2.28
2022-09-28T21:38:36.076Z,2.40
2022-09-28T21:41:03.785Z,3.03
2022-09-28T21:43:32.449Z,2.90
2022-09-28T21:45:59.670Z,2.40
2022-09-28T21:48:28.546Z,2.90
2022-09-28T21:50:57.102Z,2.33
2022-09-28T21:53:24.951Z,2.55
2022-09-28T21:55:53.117Z,2.97
2022-09-28T21:58:23.282Z,3.05
2022-09-28T22:00:58.271Z,2.40
2022-09-28T22:03:26.129Z,1.80
2022-09-28T22:05:53.439Z,2.47
2022-09-28T22:08:21.433Z,2.28
2022-09-28T22:11:00.852Z,2.60
2022-09-28T22:13:28.600Z,2.40
2022-09-28T22:16:00.820Z,2.00
2022-09-28T22:18:29.202Z,2.50
2022-09-28T22:21:00.194Z,2.08
2022-09-28T22:23:27.902Z,2.25
2022-09-28T22:25:59.684Z,2.28
2022-09-28T22:28:27.769Z,2.08
2022-09-28T22:30:56.651Z,2.28
2022-09-28T22:33:23.948Z,0.85
2022-09-28T22:35:51.459Z,1.88
2022-09-28T22:38:18.731Z,2.15
2022-09-28T22:40:49.224Z,1.67
2022-09-28T22:43:17.088Z,1.85
2022-09-28T22:45:44.878Z,2.28
2022-09-28T22:48:13.531Z,2.25
2022-09-28T22:50:48.597Z,1.98
2022-09-28T22:53:16.084Z,2.00
2022-09-28T22:55:43.350Z,1.83
2022-09-28T22:58:10.602Z,1.95
2022-09-28T23:00:39.032Z,1.83
2022-09-28T23:03:06.216Z,1.70
2022-09-28T23:05:35.107Z,2.15
2022-09-28T23:08:02.732Z,1.75
2022-09-28T23:10:29.883Z,1.70
2022-09-28T23:12:57.060Z,2.28
2022-09-28T23:15:25.227Z,1.80
2022-09-28T23:17:53.036Z,1.92
2022-09-28T23:20:20.429Z,1.77
2022-09-28T23:22:49.511Z,1.58
2022-09-28T23:25:17.934Z,1.58
2022-09-28T23:27:46.619Z,1.90
2022-09-28T23:30:14.572Z,2.20
2022-09-28T23:32:42.383Z,2.25
2022-09-28T23:35:10.280Z,2.28
2022-09-28T23:37:38.067Z,1.60
2022-09-28T23:40:07.574Z,1.25
2022-09-28T23:42:35.645Z,2.17
2022-09-28T23:45:02.950Z,1.95
2022-09-28T23:47:30.802Z,1.85
2022-09-28T23:49:57.898Z,1.88
2022-09-28T23:52:25.473Z,2.05
2022-09-28T23:54:52.689Z,1.88
2022-09-28T23:57:21.343Z,2.25
2022-09-28T23:59:48.519Z,2.60
